Time;durP1;ratioP1;P1;durP2;ratioP2;P2;SDS_P1;SDS_P2;PMS_P1;PMS_P2;Temp;Humidity;BMP_temperature;BMP_pressure;BME280_temperature;BME280_humidity;BME280_pressure;Samples;Min_cycle;Max_cycle;Signal;HPM_P1;HPM_P2
2022/01/20 00:01:36;;;;;;;14.05;7.32;;;4.60;94.40;;;;;;6251463;28;20521;-78
2022/01/20 00:04:44;;;;;;;15.77;6.78;;;4.60;94.90;;;;;;6251928;28;20062;-78
2022/01/20 00:08:02;;;;;;;13.98;6.75;;;4.50;95.00;;;;;;6259804;28;20041;-79
2022/01/20 00:27:52;;;;;;;14.50;7.38;;;4.30;96.20;;;;;;6275730;28;20041;-79
2022/01/20 00:31:02;;;;;;;14.32;8.27;;;4.30;96.50;;;;;;6275460;28;20045;-80
2022/01/20 00:34:17;;;;;;;20.90;7.50;;;4.30;96.60;;;;;;6275593;28;20048;-79
2022/01/20 00:37:18;;;;;;;17.25;7.93;;;4.30;96.70;;;;;;6274342;28;20091;-79
2022/01/20 00:40:21;;;;;;;21.60;8.07;;;4.30;97.00;;;;;;6276351;28;20075;-79
2022/01/20 00:43:24;;;;;;;18.60;8.45;;;4.40;97.20;;;;;;6275222;28;20048;-79
2022/01/20 00:46:26;;;;;;;18.70;8.80;;;4.30;97.30;;;;;;6275313;28;20053;-81
2022/01/20 00:49:28;;;;;;;17.27;8.80;;;4.40;97.30;;;;;;6276688;28;20442;-81
2022/01/20 00:52:29;;;;;;;24.08;8.82;;;4.30;97.30;;;;;;6278053;28;20057;-81
2022/01/20 00:55:31;;;;;;;21.40;8.23;;;4.40;97.40;;;;;;6277090;28;20434;-80
2022/01/20 00:58:35;;;;;;;16.80;8.65;;;4.40;97.60;;;;;;6276140;28;20556;-82
2022/01/20 01:01:37;;;;;;;25.50;10.10;;;4.40;97.50;;;;;;6276693;28;20044;-82
2022/01/20 01:04:41;;;;;;;17.55;8.73;;;4.40;97.50;;;;;;6277476;28;20056;-82
2022/01/20 01:07:48;;;;;;;15.23;7.95;;;4.40;97.30;;;;;;6275157;28;20045;-84
2022/01/20 01:10:50;;;;;;;15.68;8.00;;;4.40;97.10;;;;;;6276226;28;20053;-83
2022/01/20 01:13:56;;;;;;;21.30;8.45;;;4.30;97.20;;;;;;6276788;28;20041;-83
2022/01/20 01:20:21;;;;;;;20.90;7.78;;;4.30;97.30;;;;;;6284325;28;20128;-83
2022/01/20 01:23:23;;;;;;;15.88;8.05;;;4.30;97.30;;;;;;6287171;28;20052;-84
2022/01/20 01:26:27;;;;;;;17.52;8.50;;;4.30;97.40;;;;;;6285430;28;20041;-84
2022/01/20 01:29:50;;;;;;;14.30;7.35;;;4.20;97.20;;;;;;6287262;28;20061;-83
2022/01/20 01:32:54;;;;;;;18.65;8.13;;;4.30;97.20;;;;;;6287556;28;20049;-82
2022/01/20 01:35:58;;;;;;;15.88;6.80;;;4.40;97.20;;;;;;6286590;28;20041;-82
2022/01/20 01:38:59;;;;;;;17.63;9.77;;;4.50;97.00;;;;;;6273344;28;20053;-82
2022/01/20 01:42:01;;;;;;;14.00;6.93;;;4.50;97.00;;;;;;6256934;28;20053;-82
2022/01/20 01:45:09;;;;;;;20.13;7.93;;;4.40;97.00;;;;;;6260673;28;20128;-81
2022/01/20 01:48:11;;;;;;;16.45;7.20;;;4.50;97.00;;;;;;6264128;28;20107;-79
2022/01/20 01:51:14;;;;;;;15.32;6.60;;;4.50;96.90;;;;;;6263553;28;20124;-81
2022/01/20 01:54:17;;;;;;;13.32;6.60;;;4.50;97.00;;;;;;6262832;28;20117;-80
2022/01/20 01:57:19;;;;;;;16.02;7.15;;;4.50;96.90;;;;;;6261893;28;20045;-79
2022/01/20 02:00:22;;;;;;;16.52;7.68;;;4.60;97.10;;;;;;6261260;28;20085;-80
2022/01/20 02:03:24;;;;;;;14.13;7.13;;;4.60;96.80;;;;;;6259942;28;20051;-80
2022/01/20 02:06:47;;;;;;;15.68;8.15;;;4.70;96.80;;;;;;6258220;28;20050;-80
2022/01/20 02:20:02;;;;;;;15.95;7.40;;;4.60;96.60;;;;;;6256339;28;20132;-78
2022/01/20 02:23:04;;;;;;;15.80;7.72;;;4.60;96.50;;;;;;6255083;28;20045;-80
2022/01/20 02:26:06;;;;;;;15.05;6.50;;;4.60;96.60;;;;;;6256111;28;20045;-79
2022/01/20 02:29:08;;;;;;;14.38;7.53;;;4.60;96.60;;;;;;6255479;28;20048;-79
2022/01/20 02:32:11;;;;;;;16.67;6.40;;;4.60;96.50;;;;;;6255424;28;20537;-78
2022/01/20 02:35:14;;;;;;;18.08;7.72;;;4.60;96.50;;;;;;6254383;28;20541;-79
2022/01/20 02:38:22;;;;;;;14.90;7.55;;;4.70;96.40;;;;;;6269573;28;20064;-78
2022/01/20 02:44:51;;;;;;;18.85;7.63;;;4.70;96.20;;;;;;6278573;28;20045;-78
2022/01/20 02:47:53;;;;;;;17.90;7.45;;;4.70;96.20;;;;;;6277821;28;20045;-79
2022/01/20 02:50:57;;;;;;;16.55;6.65;;;4.70;96.30;;;;;;6276784;28;20053;-79
2022/01/20 02:53:59;;;;;;;15.27;7.88;;;4.70;96.20;;;;;;6279802;28;20115;-79
2022/01/20 02:57:01;;;;;;;13.13;6.65;;;4.70;96.10;;;;;;6279975;28;20053;-79
2022/01/20 03:00:05;;;;;;;18.10;7.40;;;4.70;96.10;;;;;;6280656;28;20064;-80
2022/01/20 03:03:06;;;;;;;15.13;6.97;;;4.80;95.90;;;;;;6279413;28;20053;-80
2022/01/20 03:06:10;;;;;;;15.60;7.63;;;4.80;96.00;;;;;;6279860;28;20055;-78
2022/01/20 03:09:11;;;;;;;19.85;7.47;;;4.70;95.60;;;;;;6280500;28;20045;-81
2022/01/20 03:12:13;;;;;;;17.15;7.63;;;4.70;95.70;;;;;;6277061;28;20080;-79
2022/01/20 03:15:15;;;;;;;15.73;6.90;;;4.70;95.70;;;;;;6278720;28;20037;-79
2022/01/20 03:18:16;;;;;;;15.85;7.22;;;4.70;95.50;;;;;;6277541;28;20052;-80
2022/01/20 03:21:20;;;;;;;19.90;7.38;;;4.60;95.40;;;;;;6277192;28;20122;-80
2022/01/20 03:24:21;;;;;;;20.48;7.95;;;4.70;95.40;;;;;;6276798;28;20130;-79
2022/01/20 03:27:23;;;;;;;16.30;8.30;;;4.70;95.30;;;;;;6277731;28;20049;-79
2022/01/20 03:30:25;;;;;;;16.52;7.50;;;4.70;95.20;;;;;;6278291;28;20570;-80
2022/01/20 03:33:27;;;;;;;18.92;8.93;;;4.70;95.20;;;;;;6273378;28;20429;-78
2022/01/20 03:36:30;;;;;;;16.38;7.38;;;4.60;95.20;;;;;;6275570;28;20048;-79
2022/01/20 03:39:32;;;;;;;13.55;7.72;;;4.70;95.20;;;;;;6256378;28;20047;-79
2022/01/20 03:42:34;;;;;;;14.05;7.72;;;4.70;95.20;;;;;;6253400;28;20589;-80
2022/01/20 03:45:36;;;;;;;16.95;7.60;;;4.70;95.30;;;;;;6255917;28;20459;-78
2022/01/20 03:48:48;;;;;;;17.13;7.63;;;4.80;95.20;;;;;;6254292;28;20187;-79
2022/01/20 03:51:51;;;;;;;19.67;8.98;;;4.80;95.00;;;;;;6253944;28;20045;-80
2022/01/20 03:54:54;;;;;;;14.73;8.10;;;4.70;94.90;;;;;;6252986;28;20175;-79
2022/01/20 03:57:56;;;;;;;20.63;8.70;;;4.70;95.10;;;;;;6253499;28;20046;-79
2022/01/20 04:00:58;;;;;;;18.95;7.57;;;4.70;95.20;;;;;;6253140;28;20056;-79
2022/01/20 04:03:59;;;;;;;25.63;8.90;;;4.70;95.00;;;;;;6245020;28;20053;-79
2022/01/20 04:07:03;;;;;;;16.45;8.02;;;4.70;95.10;;;;;;6250561;28;20041;-79
2022/01/20 04:10:05;;;;;;;19.35;8.57;;;4.70;95.10;;;;;;6251042;28;20076;-78
2022/01/20 04:13:09;;;;;;;23.65;9.15;;;4.70;95.10;;;;;;6250717;28;20041;-78
2022/01/20 04:16:16;;;;;;;18.83;7.32;;;4.70;95.10;;;;;;6252949;28;20045;-79
2022/01/20 04:19:18;;;;;;;21.42;8.15;;;4.70;95.00;;;;;;6254250;28;20130;-80
2022/01/20 04:22:24;;;;;;;28.20;11.95;;;4.60;95.10;;;;;;6253200;28;20041;-80
2022/01/20 04:25:26;;;;;;;18.67;8.80;;;4.70;95.00;;;;;;6251364;28;20050;-79
2022/01/20 04:28:28;;;;;;;23.30;9.27;;;4.70;95.10;;;;;;6251691;28;20478;-79
2022/01/20 04:31:32;;;;;;;21.00;8.60;;;4.70;95.00;;;;;;6252016;28;20046;-79
2022/01/20 04:34:33;;;;;;;25.45;9.50;;;4.80;95.10;;;;;;6254222;28;20056;-79
2022/01/20 04:37:37;;;;;;;27.80;10.70;;;4.80;95.10;;;;;;6257517;28;20163;-80
2022/01/20 04:40:41;;;;;;;24.70;10.70;;;4.90;95.20;;;;;;6273396;28;20053;-79
2022/01/20 04:43:43;;;;;;;25.55;11.02;;;5.00;95.10;;;;;;6256842;28;20049;-78
2022/01/20 04:46:52;;;;;;;24.65;10.50;;;5.00;94.70;;;;;;6256367;28;20056;-78
2022/01/20 04:59:54;;;;;;;27.48;10.73;;;4.80;94.80;;;;;;6255166;28;20049;-79
2022/01/20 05:02:56;;;;;;;32.70;11.52;;;4.90;94.80;;;;;;6253261;28;20422;-78
2022/01/20 05:05:58;;;;;;;26.92;10.95;;;4.90;94.90;;;;;;6252215;28;20135;-79
2022/01/20 05:09:01;;;;;;;19.33;10.40;;;4.90;94.80;;;;;;6244863;28;20053;-79
2022/01/20 05:12:07;;;;;;;28.40;10.82;;;4.90;94.90;;;;;;6253299;28;20171;-79
2022/01/20 05:15:09;;;;;;;28.80;10.73;;;5.00;95.00;;;;;;6254388;28;20048;-79
2022/01/20 05:18:11;;;;;;;37.13;11.98;;;5.00;94.60;;;;;;6257877;28;20046;-79
2022/01/20 05:21:13;;;;;;;27.33;11.55;;;5.00;94.60;;;;;;6257731;28;20049;-79
2022/01/20 05:24:16;;;;;;;33.83;11.13;;;5.00;94.60;;;;;;6258536;28;20049;-80
2022/01/20 05:27:18;;;;;;;29.63;12.35;;;5.00;94.70;;;;;;6253108;28;20440;-79
2022/01/20 05:30:20;;;;;;;31.45;12.13;;;5.00;94.80;;;;;;6254290;28;20050;-79
2022/01/20 05:33:22;;;;;;;31.38;12.52;;;5.10;94.70;;;;;;6253795;28;20132;-80
2022/01/20 05:36:24;;;;;;;33.35;11.95;;;5.00;94.70;;;;;;6254185;28;20322;-79
2022/01/20 05:39:27;;;;;;;28.05;11.30;;;5.00;94.90;;;;;;6253787;28;20045;-79
2022/01/20 05:42:29;;;;;;;30.55;12.35;;;5.10;94.80;;;;;;6263260;28;20538;-78
2022/01/20 05:45:31;;;;;;;28.77;11.43;;;5.10;94.70;;;;;;6253784;28;20485;-79
2022/01/20 05:48:35;;;;;;;34.08;13.15;;;5.10;94.50;;;;;;6253234;28;20077;-81
2022/01/20 05:51:37;;;;;;;26.98;11.27;;;5.10;94.40;;;;;;6253386;28;20056;-79
2022/01/20 05:54:40;;;;;;;27.52;11.77;;;5.00;94.60;;;;;;6253052;28;20080;-78
2022/01/20 05:57:42;;;;;;;31.05;12.00;;;5.00;94.60;;;;;;6256448;28;20041;-80
2022/01/20 06:00:44;;;;;;;39.53;13.93;;;5.10;94.70;;;;;;6253215;28;20077;-79
2022/01/20 06:03:45;;;;;;;23.58;10.88;;;5.10;94.70;;;;;;6251455;28;20073;-79
2022/01/20 06:06:47;;;;;;;35.47;14.10;;;5.20;94.60;;;;;;6249813;28;20053;-78
2022/01/20 06:09:50;;;;;;;33.63;14.60;;;5.10;94.50;;;;;;6251678;28;20049;-79
2022/01/20 06:12:52;;;;;;;31.30;12.98;;;5.10;94.30;;;;;;6253582;28;20077;-79
2022/01/20 06:15:54;;;;;;;38.38;12.77;;;5.10;94.60;;;;;;6255219;28;20053;-78
2022/01/20 06:18:56;;;;;;;34.45;13.05;;;5.00;94.40;;;;;;6254433;28;20156;-79
2022/01/20 06:21:58;;;;;;;26.75;11.45;;;4.90;94.50;;;;;;6252644;28;20055;-78
2022/01/20 06:25:02;;;;;;;33.70;13.13;;;5.00;94.80;;;;;;6248991;28;20056;-78
2022/01/20 06:28:04;;;;;;;28.75;12.20;;;5.00;94.80;;;;;;6250339;28;20092;-78
2022/01/20 06:31:06;;;;;;;31.85;14.10;;;5.10;94.80;;;;;;6249195;28;20046;-77
2022/01/20 06:34:08;;;;;;;29.10;12.30;;;5.10;94.50;;;;;;6249394;28;20046;-78
2022/01/20 06:37:09;;;;;;;35.38;12.65;;;5.10;94.60;;;;;;6248379;28;20041;-79
2022/01/20 06:40:14;;;;;;;36.72;13.45;;;5.00;94.50;;;;;;6248651;28;20059;-77
2022/01/20 06:43:15;;;;;;;29.63;11.48;;;5.10;94.60;;;;;;6269302;28;20045;-77
2022/01/20 06:46:17;;;;;;;29.65;12.20;;;5.10;94.60;;;;;;6273212;28;20045;-78
2022/01/20 06:49:19;;;;;;;28.80;11.35;;;5.10;94.50;;;;;;6274064;28;20059;-77
2022/01/20 06:52:21;;;;;;;22.70;9.68;;;5.10;94.30;;;;;;6273330;28;20053;-77
2022/01/20 06:55:24;;;;;;;25.10;10.77;;;4.90;94.30;;;;;;6272500;28;20065;-78
2022/01/20 06:58:26;;;;;;;25.15;9.93;;;4.70;94.50;;;;;;6272933;28;20075;-78
2022/01/20 07:01:27;;;;;;;25.45;10.70;;;4.60;94.90;;;;;;6272348;28;20087;-78
2022/01/20 07:04:32;;;;;;;27.00;10.85;;;4.60;95.10;;;;;;6272771;28;20495;-78
2022/01/20 07:07:33;;;;;;;24.63;11.18;;;4.70;95.20;;;;;;6272820;28;20613;-76
2022/01/20 07:10:37;;;;;;;23.50;10.80;;;4.60;95.00;;;;;;6272408;28;20179;-76
2022/01/20 07:13:39;;;;;;;29.63;11.85;;;4.70;95.10;;;;;;6273042;28;20055;-77
2022/01/20 07:16:40;;;;;;;27.15;11.07;;;4.80;95.20;;;;;;6273000;28;20427;-78
2022/01/20 07:19:42;;;;;;;24.83;11.40;;;4.80;95.00;;;;;;6272575;28;20051;-78
2022/01/20 07:22:44;;;;;;;28.38;12.20;;;4.90;95.00;;;;;;6273086;28;20122;-78
2022/01/20 07:25:47;;;;;;;29.30;11.75;;;5.10;95.00;;;;;;6273582;28;20524;-78
2022/01/20 07:28:49;;;;;;;27.73;12.43;;;5.10;94.80;;;;;;6273832;28;20049;-78
2022/01/20 07:31:50;;;;;;;21.85;10.68;;;5.10;95.00;;;;;;6274305;28;20053;-77
2022/01/20 07:34:52;;;;;;;27.20;11.25;;;5.10;94.60;;;;;;6272398;28;20138;-78
2022/01/20 07:37:54;;;;;;;31.88;11.48;;;5.20;94.60;;;;;;6273891;28;20536;-78
2022/01/20 07:40:58;;;;;;;27.98;12.60;;;5.20;94.60;;;;;;6274658;28;20055;-77
2022/01/20 07:43:59;;;;;;;27.38;11.02;;;5.30;94.40;;;;;;6256651;28;20047;-77
2022/01/20 07:47:01;;;;;;;24.45;10.00;;;5.20;94.40;;;;;;6272160;28;20120;-77
2022/01/20 07:50:04;;;;;;;27.33;10.25;;;5.30;94.40;;;;;;6272312;28;20052;-78
2022/01/20 07:53:06;;;;;;;23.20;9.65;;;5.20;94.30;;;;;;6272305;28;20136;-77
2022/01/20 07:56:10;;;;;;;23.02;10.85;;;5.20;94.20;;;;;;6271898;28;20045;-77
2022/01/20 07:59:11;;;;;;;24.48;11.50;;;5.10;94.20;;;;;;6271559;28;20060;-77
2022/01/20 08:02:16;;;;;;;27.65;11.52;;;5.20;94.30;;;;;;6271411;28;20052;-77
2022/01/20 08:05:18;;;;;;;26.95;10.65;;;5.20;94.20;;;;;;6271889;28;20041;-77
2022/01/20 08:08:20;;;;;;;31.50;10.57;;;5.20;94.10;;;;;;6272591;28;20076;-78
2022/01/20 08:11:23;;;;;;;30.27;11.13;;;5.10;94.20;;;;;;6274392;28;20045;-79
2022/01/20 08:14:25;;;;;;;20.20;10.25;;;5.10;94.30;;;;;;6276984;28;20131;-79
2022/01/20 08:17:27;;;;;;;21.88;9.55;;;5.10;94.30;;;;;;6277122;28;20576;-78
2022/01/20 08:20:30;;;;;;;27.95;10.57;;;5.10;94.20;;;;;;6276576;28;20045;-78
2022/01/20 08:23:32;;;;;;;33.72;10.52;;;5.20;94.30;;;;;;6279990;28;20175;-80
2022/01/20 08:26:35;;;;;;;22.70;9.65;;;5.20;94.40;;;;;;6275581;28;20041;-79
2022/01/20 08:29:37;;;;;;;27.52;10.93;;;5.30;94.20;;;;;;6275325;28;20571;-79
2022/01/20 08:32:40;;;;;;;25.58;9.75;;;5.40;94.10;;;;;;6276667;28;20059;-78
2022/01/20 08:35:42;;;;;;;26.45;9.75;;;5.40;94.00;;;;;;6275501;28;20049;-78
2022/01/20 08:38:44;;;;;;;20.90;9.20;;;5.50;93.80;;;;;;6275853;28;20049;-79
2022/01/20 08:41:47;;;;;;;27.67;11.07;;;5.50;93.70;;;;;;6275517;28;20430;-78
2022/01/20 08:44:49;;;;;;;20.27;9.00;;;5.50;93.90;;;;;;6253691;28;20076;-79
2022/01/20 08:47:54;;;;;;;17.35;9.00;;;5.50;93.80;;;;;;6250991;28;20100;-78
2022/01/20 08:50:55;;;;;;;21.45;8.57;;;5.50;93.70;;;;;;6254843;28;20049;-78
2022/01/20 08:53:57;;;;;;;20.45;10.10;;;5.50;93.80;;;;;;6213769;28;20092;-78
2022/01/20 08:57:00;;;;;;;22.02;9.90;;;5.60;93.70;;;;;;6248049;28;20645;-79
2022/01/20 09:00:04;;;;;;;20.20;8.57;;;5.60;93.80;;;;;;6246499;28;20491;-78
2022/01/20 09:03:07;;;;;;;18.60;8.25;;;5.90;93.90;;;;;;6259041;28;21561;-78
2022/01/20 09:06:08;;;;;;;19.17;9.23;;;6.00;93.10;;;;;;6264445;28;20048;-78
2022/01/20 09:09:10;;;;;;;19.58;8.60;;;6.10;93.10;;;;;;6273074;28;20045;-79
2022/01/20 09:15:27;;;;;;;14.57;7.68;;;6.10;93.00;;;;;;6252517;28;20410;-77
2022/01/20 09:15:38;;;;;;;18.38;8.02;;;6.10;92.90;;;;;;6252207;28;20041;-77
2022/01/20 09:18:39;;;;;;;18.48;7.85;;;6.10;92.60;;;;;;6253051;28;20091;-77
2022/01/20 09:21:41;;;;;;;18.88;8.98;;;6.10;92.70;;;;;;6254726;28;20053;-80
2022/01/20 09:24:45;;;;;;;15.18;7.13;;;6.10;92.60;;;;;;6252760;28;20115;-80
2022/01/20 09:27:50;;;;;;;21.02;8.63;;;6.10;92.50;;;;;;6253237;28;20056;-78
2022/01/20 09:30:57;;;;;;;19.55;8.30;;;6.20;92.60;;;;;;6252818;28;20547;-80
2022/01/20 09:33:59;;;;;;;16.70;7.43;;;6.20;92.40;;;;;;6262371;28;20041;-80
2022/01/20 09:37:00;;;;;;;19.60;7.70;;;6.30;92.40;;;;;;6270055;28;20112;-81
2022/01/20 09:40:04;;;;;;;15.60;7.40;;;6.40;92.30;;;;;;6278901;28;20138;-78
2022/01/20 09:43:10;;;;;;;17.63;6.95;;;6.40;92.20;;;;;;6275028;28;20045;-79
2022/01/20 09:46:12;;;;;;;13.95;7.40;;;6.60;92.60;;;;;;6275410;28;20091;-79
2022/01/20 09:49:15;;;;;;;17.83;6.80;;;6.70;91.80;;;;;;6276318;28;20560;-79
2022/01/20 09:52:16;;;;;;;19.40;7.03;;;6.70;91.50;;;;;;6277864;28;20052;-78
2022/01/20 09:55:19;;;;;;;15.00;6.97;;;6.70;91.00;;;;;;6277690;28;20047;-78
2022/01/20 09:58:24;;;;;;;21.20;7.88;;;6.70;91.30;;;;;;6278398;28;20418;-78
2022/01/20 10:01:40;;;;;;;24.23;7.90;;;6.70;91.40;;;;;;6278782;28;20417;-80
2022/01/20 10:04:42;;;;;;;16.05;7.28;;;6.90;91.30;;;;;;6273230;28;20140;-79
2022/01/20 10:07:44;;;;;;;17.83;8.82;;;6.90;91.20;;;;;;6275934;28;20637;-80
2022/01/20 10:10:49;;;;;;;18.50;6.95;;;6.90;91.40;;;;;;6277611;28;20056;-78
2022/01/20 10:13:59;;;;;;;20.65;7.95;;;7.00;91.40;;;;;;6279047;28;20140;-78
2022/01/20 10:17:00;;;;;;;15.40;7.22;;;7.00;91.00;;;;;;6280056;28;20490;-78
2022/01/20 10:20:06;;;;;;;20.02;7.78;;;7.10;91.20;;;;;;6279201;28;20095;-78
2022/01/20 10:23:08;;;;;;;19.52;8.00;;;7.10;91.20;;;;;;6276449;28;20409;-78
2022/01/20 10:26:14;;;;;;;30.02;8.77;;;7.00;91.20;;;;;;6278589;28;20529;-79
2022/01/20 10:29:18;;;;;;;16.92;6.57;;;7.00;91.30;;;;;;6276465;28;20048;-78
2022/01/20 10:32:20;;;;;;;17.52;6.80;;;7.10;91.10;;;;;;6277184;28;20076;-78
2022/01/20 10:35:26;;;;;;;25.83;7.57;;;7.20;90.70;;;;;;6268242;28;20049;-78
2022/01/20 10:38:28;;;;;;;14.40;6.03;;;7.20;90.80;;;;;;6276325;28;20127;-78
2022/01/20 10:41:34;;;;;;;17.08;8.38;;;7.20;90.80;;;;;;6276320;28;20051;-78
2022/01/20 10:44:46;;;;;;;21.95;8.25;;;7.20;90.50;;;;;;6278688;28;20141;-80
2022/01/20 10:47:50;;;;;;;18.88;7.03;;;7.30;90.80;;;;;;6263592;28;20114;-78
2022/01/20 10:50:52;;;;;;;25.38;7.32;;;7.30;90.60;;;;;;6251803;28;20503;-78
2022/01/20 10:54:01;;;;;;;14.98;6.40;;;7.30;90.50;;;;;;6250375;28;20144;-79
2022/01/20 10:57:03;;;;;;;20.58;7.55;;;7.30;90.10;;;;;;6250063;28;20088;-79
2022/01/20 11:00:11;;;;;;;13.40;6.20;;;7.20;90.10;;;;;;6253056;28;20053;-78
2022/01/20 11:03:13;;;;;;;22.13;6.00;;;7.20;90.30;;;;;;6255671;28;20095;-78
2022/01/20 11:06:15;;;;;;;13.77;6.35;;;7.20;90.30;;;;;;6268218;28;20043;-78
2022/01/20 11:09:20;;;;;;;15.27;6.25;;;7.30;90.10;;;;;;6249470;28;20107;-78
2022/01/20 11:12:22;;;;;;;15.02;6.85;;;7.30;90.00;;;;;;6249380;28;20157;-78
2022/01/20 11:15:28;;;;;;;23.67;6.70;;;7.30;90.10;;;;;;6248751;28;20200;-78
2022/01/20 11:18:30;;;;;;;14.50;5.18;;;7.40;90.10;;;;;;6249300;28;20049;-79
2022/01/20 11:21:32;;;;;;;14.57;5.60;;;7.40;90.50;;;;;;6249704;28;20069;-79
2022/01/20 11:24:34;;;;;;;17.75;6.30;;;7.40;89.90;;;;;;6250297;28;20059;-78
2022/01/20 11:27:39;;;;;;;18.48;6.97;;;7.40;89.50;;;;;;6249627;28;20443;-78
2022/01/20 11:30:54;;;;;;;27.48;7.55;;;7.30;89.80;;;;;;6248666;28;20418;-79
2022/01/20 11:33:56;;;;;;;13.05;6.32;;;7.40;89.90;;;;;;6258132;28;20375;-78
2022/01/20 11:37:08;;;;;;;15.18;5.47;;;7.30;89.00;;;;;;6265768;28;20495;-79
2022/01/20 11:40:13;;;;;;;11.73;4.70;;;7.20;88.70;;;;;;6277576;28;20140;-78
2022/01/20 11:43:15;;;;;;;15.48;6.20;;;7.00;90.10;;;;;;6276320;28;20095;-79
2022/01/20 11:46:20;;;;;;;19.00;5.05;;;7.20;90.70;;;;;;6267004;28;20466;-78
2022/01/20 11:49:23;;;;;;;14.00;5.25;;;7.60;90.10;;;;;;6250947;28;20051;-78
2022/01/20 11:52:26;;;;;;;16.63;5.85;;;8.20;89.30;;;;;;6251990;28;20437;-78
2022/01/20 11:55:27;;;;;;;12.63;4.20;;;8.90;88.10;;;;;;6251372;28;20042;-80
2022/01/20 11:58:29;;;;;;;19.25;4.95;;;9.70;84.10;;;;;;6251082;28;20130;-79
2022/01/20 12:01:43;;;;;;;9.38;3.72;;;10.30;82.80;;;;;;6251351;28;20529;-80
2022/01/20 12:04:47;;;;;;;16.00;4.20;;;11.10;78.90;;;;;;6258174;28;20068;-80
2022/01/20 12:07:49;;;;;;;16.98;3.95;;;11.50;78.00;;;;;;6250827;28;20038;-80
2022/01/20 12:11:00;;;;;;;2.75;1.85;;;11.50;75.20;;;;;;6249333;28;20049;-80
2022/01/20 12:14:02;;;;;;;1.08;0.25;;;11.10;73.50;;;;;;6251366;28;20045;-80
2022/01/20 12:17:11;;;;;;;4.05;0.82;;;10.60;73.70;;;;;;6248100;28;20065;-80
2022/01/20 12:20:12;;;;;;;3.22;0.70;;;9.70;74.60;;;;;;6247662;28;20053;-78
2022/01/20 12:23:14;;;;;;;1.90;0.70;;;8.90;78.50;;;;;;6247411;28;20124;-78
2022/01/20 12:26:16;;;;;;;5.20;1.77;;;8.30;81.10;;;;;;6247136;28;20049;-80
2022/01/20 12:29:18;;;;;;;1.63;0.32;;;7.90;83.10;;;;;;6246947;28;20041;-78
2022/01/20 12:32:23;;;;;;;3.35;1.08;;;7.70;83.90;;;;;;6250277;28;20486;-79
2022/01/20 12:35:26;;;;;;;5.90;1.75;;;7.60;84.50;;;;;;6266774;28;20164;-78
2022/01/20 12:38:29;;;;;;;20.40;7.75;;;7.50;85.00;;;;;;6247144;28;20049;-79
2022/01/20 12:41:31;;;;;;;23.95;8.23;;;7.30;85.10;;;;;;6248457;28;20049;-80
2022/01/20 12:44:46;;;;;;;16.35;5.32;;;7.10;85.30;;;;;;6250139;28;20176;-79
2022/01/20 12:47:49;;;;;;;15.60;5.65;;;6.80;85.70;;;;;;6251298;28;20069;-79
2022/01/20 12:50:53;;;;;;;6.95;2.42;;;6.60;87.00;;;;;;6247652;28;20176;-80
2022/01/20 12:53:57;;;;;;;22.58;10.45;;;6.50;87.30;;;;;;6245616;28;20041;-83
2022/01/20 12:57:03;;;;;;;18.15;8.45;;;6.30;88.00;;;;;;6245262;28;20435;-82
2022/01/20 13:00:08;;;;;;;15.07;6.78;;;6.20;88.70;;;;;;6250526;28;20050;-82
2022/01/20 13:03:12;;;;;;;19.65;5.20;;;6.20;89.70;;;;;;6253717;28;20049;-81
2022/01/20 13:06:22;;;;;;;13.85;5.82;;;6.20;90.00;;;;;;6262094;28;20042;-82
2022/01/20 13:09:36;;;;;;;17.50;7.88;;;6.20;90.30;;;;;;6252384;28;20072;-80
2022/01/20 13:12:40;;;;;;;30.02;17.08;;;6.10;91.90;;;;;;6251940;28;20053;-80
2022/01/20 13:15:46;;;;;;;17.52;13.48;;;6.20;92.60;;;;;;6250117;28;20084;-81
2022/01/20 13:18:54;;;;;;;26.95;13.90;;;6.20;93.00;;;;;;6250424;28;20055;-82
2022/01/20 13:21:56;;;;;;;38.65;26.25;;;6.20;93.30;;;;;;6251172;28;20045;-81
2022/01/20 13:25:06;;;;;;;26.15;18.52;;;6.20;93.30;;;;;;6250937;28;20887;-83
2022/01/20 13:28:10;;;;;;;24.60;14.18;;;6.30;93.40;;;;;;6250895;28;20418;-81
2022/01/20 13:31:16;;;;;;;25.35;12.05;;;6.30;93.40;;;;;;6251502;28;20045;-82
2022/01/20 13:34:20;;;;;;;14.18;5.70;;;6.40;93.40;;;;;;6260559;28;20040;-82
2022/01/20 13:37:22;;;;;;;9.25;3.25;;;6.50;93.80;;;;;;6269487;28;20041;-82
2022/01/20 13:40:24;;;;;;;5.00;1.48;;;6.50;93.50;;;;;;6275392;28;20049;-81
2022/01/20 13:46:47;;;;;;;4.28;1.30;;;6.40;93.80;;;;;;6275180;28;20044;-82
2022/01/20 13:49:55;;;;;;;3.83;2.63;;;6.40;93.90;;;;;;6265259;28;20186;-81
2022/01/20 13:52:57;;;;;;;5.03;2.35;;;6.50;94.00;;;;;;6276101;28;20053;-81
2022/01/20 13:56:02;;;;;;;5.75;2.08;;;6.50;93.80;;;;;;6266895;28;20164;-83
2022/01/20 13:59:06;;;;;;;8.07;1.40;;;6.50;93.90;;;;;;6266967;28;20037;-81
2022/01/20 14:02:09;;;;;;;8.05;3.95;;;6.50;94.20;;;;;;6274427;28;20044;-81
2022/01/20 14:05:12;;;;;;;5.15;2.63;;;6.50;94.20;;;;;;6268244;28;20041;-82
2022/01/20 14:08:14;;;;;;;3.17;2.08;;;6.50;94.00;;;;;;6278416;28;20045;-80
2022/01/20 14:11:16;;;;;;;6.10;2.03;;;6.50;93.50;;;;;;6279263;28;20112;-82
2022/01/20 14:14:18;;;;;;;7.05;3.78;;;6.50;93.50;;;;;;6277296;28;20045;-82
2022/01/20 14:17:21;;;;;;;8.15;4.22;;;6.50;93.30;;;;;;6279044;28;20045;-83
2022/01/20 14:20:27;;;;;;;11.40;7.90;;;6.60;93.60;;;;;;6279843;28;20057;-83
2022/01/20 14:23:29;;;;;;;5.75;2.10;;;6.70;93.40;;;;;;6279208;28;20160;-81
2022/01/20 14:26:32;;;;;;;9.55;3.05;;;6.70;93.20;;;;;;6278264;28;20045;-82
2022/01/20 14:29:34;;;;;;;3.83;1.45;;;6.60;93.40;;;;;;6278493;28;20049;-83
2022/01/20 14:32:35;;;;;;;6.60;1.88;;;6.70;93.40;;;;;;6278819;28;20045;-81
2022/01/20 14:35:38;;;;;;;3.55;0.88;;;6.70;92.60;;;;;;6269974;28;20045;-80
2022/01/20 14:38:40;;;;;;;13.15;1.83;;;6.70;92.90;;;;;;6278446;28;20045;-79
2022/01/20 14:41:42;;;;;;;10.35;2.58;;;6.60;92.70;;;;;;6277767;28;20045;-79
2022/01/20 14:44:47;;;;;;;5.38;1.75;;;6.60;92.80;;;;;;6276700;28;20507;-80
2022/01/20 14:47:52;;;;;;;9.07;1.58;;;6.40;92.70;;;;;;6277651;28;20056;-79
2022/01/20 14:50:55;;;;;;;3.63;1.15;;;6.20;92.70;;;;;;6260902;28;20052;-82
2022/01/20 14:53:57;;;;;;;5.72;1.73;;;5.90;92.80;;;;;;6279126;28;20529;-80
2022/01/20 14:56:59;;;;;;;4.95;2.63;;;5.70;93.00;;;;;;6275738;28;20045;-79
2022/01/20 15:00:01;;;;;;;7.95;1.90;;;5.60;93.30;;;;;;6275025;28;20044;-77
2022/01/20 15:03:03;;;;;;;7.35;1.88;;;5.40;93.30;;;;;;6273935;28;20041;-79
2022/01/20 15:06:06;;;;;;;6.28;1.58;;;5.30;93.40;;;;;;6266060;28;20179;-79
2022/01/20 15:09:09;;;;;;;6.25;1.42;;;5.20;93.50;;;;;;6261563;28;20518;-79
2022/01/20 15:12:11;;;;;;;4.40;1.60;;;5.10;93.70;;;;;;6252365;28;20049;-78
2022/01/20 15:15:13;;;;;;;7.13;1.98;;;5.00;93.60;;;;;;6247705;28;20072;-78
2022/01/20 15:18:14;;;;;;;12.38;1.48;;;5.00;93.60;;;;;;6249857;28;20047;-79
2022/01/20 15:21:17;;;;;;;10.75;1.70;;;4.80;93.50;;;;;;6250135;28;20131;-80
2022/01/20 15:24:19;;;;;;;5.75;1.73;;;4.80;93.60;;;;;;6251533;28;20423;-79
2022/01/20 15:27:21;;;;;;;9.23;1.75;;;4.80;93.60;;;;;;6252151;28;20048;-80
2022/01/20 15:30:23;;;;;;;11.57;1.55;;;4.80;93.70;;;;;;6257965;28;20045;-78
2022/01/20 15:33:25;;;;;;;7.03;1.90;;;4.80;93.70;;;;;;6268309;28;20087;-78
2022/01/20 15:36:28;;;;;;;10.98;1.88;;;4.80;93.50;;;;;;6270456;28;20068;-77
2022/01/20 15:39:30;;;;;;;5.07;1.55;;;4.70;93.40;;;;;;6275250;28;20037;-79
2022/01/20 15:42:32;;;;;;;7.57;1.90;;;4.70;93.20;;;;;;6277698;28;20132;-79
2022/01/20 15:45:34;;;;;;;2.88;1.33;;;4.60;93.20;;;;;;6277233;28;20040;-78
2022/01/20 15:48:37;;;;;;;5.63;1.63;;;4.50;93.30;;;;;;6275617;28;20045;-79
2022/01/20 15:51:40;;;;;;;4.93;1.00;;;4.40;93.40;;;;;;6262494;28;20668;-78
2022/01/20 15:54:42;;;;;;;4.32;1.20;;;4.40;93.30;;;;;;6217243;28;20070;-78
2022/01/20 15:57:44;;;;;;;3.03;1.70;;;4.20;93.10;;;;;;6210558;28;20077;-77
2022/01/20 16:00:46;;;;;;;5.32;1.50;;;4.10;93.60;;;;;;6225862;28;20130;-78
2022/01/20 16:03:48;;;;;;;7.03;3.45;;;4.00;93.40;;;;;;6210910;28;20423;-79
2022/01/20 16:06:51;;;;;;;10.30;1.60;;;4.00;93.40;;;;;;6233591;28;20045;-79
2022/01/20 16:09:52;;;;;;;8.77;2.20;;;4.00;93.40;;;;;;6250485;28;20049;-78
2022/01/20 16:12:54;;;;;;;8.40;1.38;;;4.00;93.50;;;;;;6251169;28;20422;-79
2022/01/20 16:15:59;;;;;;;10.52;2.90;;;4.00;93.50;;;;;;6250284;28;20057;-80
2022/01/20 16:19:02;;;;;;;10.27;2.55;;;4.00;93.30;;;;;;6249052;28;20041;-79
2022/01/20 16:22:05;;;;;;;4.68;3.00;;;4.10;93.20;;;;;;6249908;28;20045;-79
2022/01/20 16:25:09;;;;;;;12.23;2.65;;;4.10;93.30;;;;;;6250610;28;20057;-79
2022/01/20 16:28:11;;;;;;;10.90;2.25;;;4.10;93.30;;;;;;6249853;28;20041;-77
2022/01/20 16:31:13;;;;;;;5.25;1.67;;;4.20;93.10;;;;;;6249920;28;20042;-78
2022/01/20 16:34:14;;;;;;;9.00;2.28;;;4.10;93.00;;;;;;6237831;28;20053;-79
2022/01/20 16:37:18;;;;;;;8.85;3.35;;;4.10;93.10;;;;;;6226149;28;20659;-78
2022/01/20 16:40:21;;;;;;;8.15;3.25;;;4.20;93.30;;;;;;6254625;28;20053;-79